sensor_id;sensor_type;location;lat;lon;timestamp;temperature;humidity
54680;DHT22;40578;53.178;5.846;2023-02-15T00:01:20;0.40;99.90
54680;DHT22;40578;53.178;5.846;2023-02-15T00:03:49;0.30;99.90
54680;DHT22;40578;53.178;5.846;2023-02-15T00:06:15;0.30;99.90
54680;DHT22;40578;53.178;5.846;2023-02-15T00:08:41;0.30;99.90
54680;DHT22;40578;53.178;5.846;2023-02-15T00:11:09;0.30;99.90
54680;DHT22;40578;53.178;5.846;2023-02-15T00:13:35;0.30;99.90
54680;DHT22;40578;53.178;5.846;2023-02-15T00:16:06;0.10;99.90
54680;DHT22;40578;53.178;5.846;2023-02-15T00:18:32;0.10;99.90
54680;DHT22;40578;53.178;5.846;2023-02-15T00:21:02;0.20;99.90
54680;DHT22;40578;53.178;5.846;2023-02-15T00:23:28;0.00;99.90
54680;DHT22;40578;53.178;5.846;2023-02-15T00:26:09;0.10;99.90
54680;DHT22;40578;53.178;5.846;2023-02-15T00:28:35;0.10;99.90
54680;DHT22;40578;53.178;5.846;2023-02-15T00:31:09;-0.10;99.90
54680;DHT22;40578;53.178;5.846;2023-02-15T00:33:35;-0.10;99.90
54680;DHT22;40578;53.178;5.846;2023-02-15T00:36:02;0.10;99.90
54680;DHT22;40578;53.178;5.846;2023-02-15T00:38:29;-0.10;99.90
54680;DHT22;40578;53.178;5.846;2023-02-15T00:40:56;-0.10;99.90
54680;DHT22;40578;53.178;5.846;2023-02-15T00:43:22;0.00;99.90
54680;DHT22;40578;53.178;5.846;2023-02-15T00:45:48;0.10;99.90
54680;DHT22;40578;53.178;5.846;2023-02-15T00:48:13;0.30;99.90
54680;DHT22;40578;53.178;5.846;2023-02-15T00:50:39;0.20;99.90
54680;DHT22;40578;53.178;5.846;2023-02-15T00:53:05;0.20;99.90
54680;DHT22;40578;53.178;5.846;2023-02-15T00:55:30;0.30;99.90
54680;DHT22;40578;53.178;5.846;2023-02-15T00:57:56;0.20;99.90
54680;DHT22;40578;53.178;5.846;2023-02-15T01:00:22;0.30;99.90
54680;DHT22;40578;53.178;5.846;2023-02-15T01:02:47;0.00;99.90
54680;DHT22;40578;53.178;5.846;2023-02-15T01:05:13;0.00;99.90
54680;DHT22;40578;53.178;5.846;2023-02-15T01:07:39;0.00;99.90
54680;DHT22;40578;53.178;5.846;2023-02-15T01:10:06;0.20;99.90
54680;DHT22;40578;53.178;5.846;2023-02-15T01:12:32;0.00;99.90
54680;DHT22;40578;53.178;5.846;2023-02-15T01:14:58;0.00;99.90
54680;DHT22;40578;53.178;5.846;2023-02-15T01:17:23;0.00;99.90
54680;DHT22;40578;53.178;5.846;2023-02-15T01:19:49;0.10;99.90
54680;DHT22;40578;53.178;5.846;2023-02-15T01:22:17;0.10;99.90
54680;DHT22;40578;53.178;5.846;2023-02-15T01:24:43;0.20;99.90
54680;DHT22;40578;53.178;5.846;2023-02-15T01:27:09;0.00;99.90
54680;DHT22;40578;53.178;5.846;2023-02-15T01:29:35;0.10;99.90
54680;DHT22;40578;53.178;5.846;2023-02-15T01:32:01;0.10;99.90
54680;DHT22;40578;53.178;5.846;2023-02-15T01:34:26;0.10;99.90
54680;DHT22;40578;53.178;5.846;2023-02-15T01:36:53;0.10;99.90
54680;DHT22;40578;53.178;5.846;2023-02-15T01:39:19;0.00;99.90
54680;DHT22;40578;53.178;5.846;2023-02-15T01:41:45;-0.10;99.90
54680;DHT22;40578;53.178;5.846;2023-02-15T01:47:09;-0.20;99.90
54680;DHT22;40578;53.178;5.846;2023-02-15T01:49:35;-0.20;99.90
54680;DHT22;40578;53.178;5.846;2023-02-15T01:52:01;-0.10;99.90
54680;DHT22;40578;53.178;5.846;2023-02-15T01:54:31;-0.10;99.90
54680;DHT22;40578;53.178;5.846;2023-02-15T01:57:04;-0.30;99.90
54680;DHT22;40578;53.178;5.846;2023-02-15T01:59:31;-0.30;99.90
54680;DHT22;40578;53.178;5.846;2023-02-15T02:01:59;-0.40;99.90
54680;DHT22;40578;53.178;5.846;2023-02-15T02:04:41;-0.40;99.90
54680;DHT22;40578;53.178;5.846;2023-02-15T02:07:10;-0.30;99.90
54680;DHT22;40578;53.178;5.846;2023-02-15T02:09:37;-0.20;99.90
54680;DHT22;40578;53.178;5.846;2023-02-15T02:12:03;-0.20;99.90
54680;DHT22;40578;53.178;5.846;2023-02-15T02:14:29;-0.30;99.90
54680;DHT22;40578;53.178;5.846;2023-02-15T02:17:17;-0.30;99.90
54680;DHT22;40578;53.178;5.846;2023-02-15T02:29:02;-0.20;99.90
54680;DHT22;40578;53.178;5.846;2023-02-15T02:34:32;-0.30;99.90
54680;DHT22;40578;53.178;5.846;2023-02-15T02:37:22;-0.40;99.90
54680;DHT22;40578;53.178;5.846;2023-02-15T02:40:30;-0.50;99.90
54680;DHT22;40578;53.178;5.846;2023-02-15T02:43:05;-0.40;99.90
54680;DHT22;40578;53.178;5.846;2023-02-15T02:45:44;-0.50;99.90
54680;DHT22;40578;53.178;5.846;2023-02-15T02:48:16;-0.50;99.90
54680;DHT22;40578;53.178;5.846;2023-02-15T02:50:44;-0.40;99.90
54680;DHT22;40578;53.178;5.846;2023-02-15T02:53:10;-0.60;99.90
54680;DHT22;40578;53.178;5.846;2023-02-15T02:55:49;-0.60;99.90
54680;DHT22;40578;53.178;5.846;2023-02-15T02:58:26;-0.60;99.90
54680;DHT22;40578;53.178;5.846;2023-02-15T03:01:12;-0.70;99.90
54680;DHT22;40578;53.178;5.846;2023-02-15T03:03:40;-0.70;99.90
54680;DHT22;40578;53.178;5.846;2023-02-15T03:06:10;-0.80;99.90
54680;DHT22;40578;53.178;5.846;2023-02-15T03:08:42;-0.60;99.90
54680;DHT22;40578;53.178;5.846;2023-02-15T03:11:09;-0.30;99.90
54680;DHT22;40578;53.178;5.846;2023-02-15T03:13:36;-0.70;99.90
54680;DHT22;40578;53.178;5.846;2023-02-15T03:16:04;-0.80;99.90
54680;DHT22;40578;53.178;5.846;2023-02-15T03:18:51;-0.80;99.90
54680;DHT22;40578;53.178;5.846;2023-02-15T03:21:27;-0.80;99.90
54680;DHT22;40578;53.178;5.846;2023-02-15T03:24:02;-0.80;99.90
54680;DHT22;40578;53.178;5.846;2023-02-15T03:26:30;-0.90;99.90
54680;DHT22;40578;53.178;5.846;2023-02-15T03:28:58;-0.80;99.90
54680;DHT22;40578;53.178;5.846;2023-02-15T03:31:28;-0.70;99.90
54680;DHT22;40578;53.178;5.846;2023-02-15T03:33:59;-0.80;99.90
54680;DHT22;40578;53.178;5.846;2023-02-15T03:42:10;-0.70;99.90
54680;DHT22;40578;53.178;5.846;2023-02-15T03:47:19;-0.60;99.90
54680;DHT22;40578;53.178;5.846;2023-02-15T03:50:07;-0.70;99.90
54680;DHT22;40578;53.178;5.846;2023-02-15T03:52:55;-0.70;99.90
54680;DHT22;40578;53.178;5.846;2023-02-15T03:55:22;-0.70;99.90
54680;DHT22;40578;53.178;5.846;2023-02-15T03:57:48;-0.90;99.90
54680;DHT22;40578;53.178;5.846;2023-02-15T04:00:35;-0.90;99.90
54680;DHT22;40578;53.178;5.846;2023-02-15T04:05:56;-0.90;99.90
54680;DHT22;40578;53.178;5.846;2023-02-15T04:08:22;-0.90;99.90
54680;DHT22;40578;53.178;5.846;2023-02-15T04:11:07;-0.80;99.90
54680;DHT22;40578;53.178;5.846;2023-02-15T04:13:33;-0.90;99.90
54680;DHT22;40578;53.178;5.846;2023-02-15T04:15:59;-0.90;99.90
54680;DHT22;40578;53.178;5.846;2023-02-15T04:18:41;-0.90;99.90
54680;DHT22;40578;53.178;5.846;2023-02-15T04:21:30;-0.70;99.90
54680;DHT22;40578;53.178;5.846;2023-02-15T04:24:15;-0.90;99.90
54680;DHT22;40578;53.178;5.846;2023-02-15T04:27:00;-0.90;99.90
54680;DHT22;40578;53.178;5.846;2023-02-15T04:29:26;-0.70;99.90
54680;DHT22;40578;53.178;5.846;2023-02-15T04:31:53;-0.90;99.90
54680;DHT22;40578;53.178;5.846;2023-02-15T04:34:20;0.50;99.90
54680;DHT22;40578;53.178;5.846;2023-02-15T04:36:46;-1.00;99.90
54680;DHT22;40578;53.178;5.846;2023-02-15T04:39:16;-0.20;99.90
54680;DHT22;40578;53.178;5.846;2023-02-15T04:41:42;1.10;99.90
54680;DHT22;40578;53.178;5.846;2023-02-15T04:44:08;-0.90;99.90
54680;DHT22;40578;53.178;5.846;2023-02-15T04:46:34;-0.90;99.90
54680;DHT22;40578;53.178;5.846;2023-02-15T04:48:59;-0.80;99.90
54680;DHT22;40578;53.178;5.846;2023-02-15T04:51:25;-0.90;99.90
54680;DHT22;40578;53.178;5.846;2023-02-15T04:53:51;-0.90;99.90
54680;DHT22;40578;53.178;5.846;2023-02-15T04:56:20;-0.90;99.90
54680;DHT22;40578;53.178;5.846;2023-02-15T04:58:46;-1.10;99.90
54680;DHT22;40578;53.178;5.846;2023-02-15T05:01:12;-0.90;99.90
54680;DHT22;40578;53.178;5.846;2023-02-15T05:03:38;-0.60;99.90
54680;DHT22;40578;53.178;5.846;2023-02-15T05:06:04;-1.10;99.90
54680;DHT22;40578;53.178;5.846;2023-02-15T05:08:30;0.20;99.90
54680;DHT22;40578;53.178;5.846;2023-02-15T05:10:56;-1.10;99.90
54680;DHT22;40578;53.178;5.846;2023-02-15T05:13:22;-1.00;99.90
54680;DHT22;40578;53.178;5.846;2023-02-15T05:15:49;-1.10;99.90
54680;DHT22;40578;53.178;5.846;2023-02-15T05:18:16;-1.10;99.90
54680;DHT22;40578;53.178;5.846;2023-02-15T05:20:42;0.40;99.90
54680;DHT22;40578;53.178;5.846;2023-02-15T05:23:07;-0.50;99.90
54680;DHT22;40578;53.178;5.846;2023-02-15T05:25:33;-1.20;99.90
54680;DHT22;40578;53.178;5.846;2023-02-15T05:28:17;-1.20;99.90
54680;DHT22;40578;53.178;5.846;2023-02-15T05:31:06;-1.20;99.90
54680;DHT22;40578;53.178;5.846;2023-02-15T05:33:32;-1.60;99.90
54680;DHT22;40578;53.178;5.846;2023-02-15T05:35:59;-1.10;99.90
54680;DHT22;40578;53.178;5.846;2023-02-15T05:38:24;-1.00;99.90
54680;DHT22;40578;53.178;5.846;2023-02-15T05:40:51;-1.20;99.90
54680;DHT22;40578;53.178;5.846;2023-02-15T05:43:17;-1.20;99.90
54680;DHT22;40578;53.178;5.846;2023-02-15T05:45:52;-1.00;99.90
54680;DHT22;40578;53.178;5.846;2023-02-15T05:48:20;-1.20;99.90
54680;DHT22;40578;53.178;5.846;2023-02-15T05:50:46;-0.90;99.90
54680;DHT22;40578;53.178;5.846;2023-02-15T05:53:21;-1.10;99.90
54680;DHT22;40578;53.178;5.846;2023-02-15T05:55:47;-1.00;99.90
54680;DHT22;40578;53.178;5.846;2023-02-15T05:58:12;-1.00;99.90
54680;DHT22;40578;53.178;5.846;2023-02-15T06:00:38;-1.00;99.90
54680;DHT22;40578;53.178;5.846;2023-02-15T06:03:03;-0.90;99.90
54680;DHT22;40578;53.178;5.846;2023-02-15T06:05:29;-1.00;99.90
54680;DHT22;40578;53.178;5.846;2023-02-15T06:07:54;-0.80;99.90
54680;DHT22;40578;53.178;5.846;2023-02-15T06:10:20;-0.90;99.90
54680;DHT22;40578;53.178;5.846;2023-02-15T06:12:46;-0.90;99.90
54680;DHT22;40578;53.178;5.846;2023-02-15T06:15:12;-0.80;99.90
54680;DHT22;40578;53.178;5.846;2023-02-15T06:17:37;-0.90;99.90
54680;DHT22;40578;53.178;5.846;2023-02-15T06:20:03;-0.90;99.90
54680;DHT22;40578;53.178;5.846;2023-02-15T06:22:29;-1.00;99.90
54680;DHT22;40578;53.178;5.846;2023-02-15T06:24:56;-0.90;99.90
54680;DHT22;40578;53.178;5.846;2023-02-15T06:27:21;-0.90;99.90
54680;DHT22;40578;53.178;5.846;2023-02-15T06:29:47;-0.80;99.90
54680;DHT22;40578;53.178;5.846;2023-02-15T06:32:13;-0.90;99.90
54680;DHT22;40578;53.178;5.846;2023-02-15T06:34:38;-0.80;99.90
54680;DHT22;40578;53.178;5.846;2023-02-15T06:37:04;-0.80;99.90
54680;DHT22;40578;53.178;5.846;2023-02-15T06:39:29;-0.70;99.90
54680;DHT22;40578;53.178;5.846;2023-02-15T06:41:55;-0.90;99.90
54680;DHT22;40578;53.178;5.846;2023-02-15T06:44:21;-0.90;99.90
54680;DHT22;40578;53.178;5.846;2023-02-15T06:46:46;-0.90;99.90
54680;DHT22;40578;53.178;5.846;2023-02-15T06:49:12;-0.80;99.90
54680;DHT22;40578;53.178;5.846;2023-02-15T06:51:37;-0.60;99.90
54680;DHT22;40578;53.178;5.846;2023-02-15T06:54:03;-0.60;99.90
54680;DHT22;40578;53.178;5.846;2023-02-15T06:56:29;-0.70;99.90
54680;DHT22;40578;53.178;5.846;2023-02-15T06:58:55;-0.60;99.90
54680;DHT22;40578;53.178;5.846;2023-02-15T07:01:20;-0.80;99.90
54680;DHT22;40578;53.178;5.846;2023-02-15T07:03:46;-0.80;99.90
54680;DHT22;40578;53.178;5.846;2023-02-15T07:06:12;-0.50;99.90
54680;DHT22;40578;53.178;5.846;2023-02-15T07:08:38;0.80;99.90
54680;DHT22;40578;53.178;5.846;2023-02-15T07:11:04;-0.90;99.90
54680;DHT22;40578;53.178;5.846;2023-02-15T07:13:49;-0.60;99.90
54680;DHT22;40578;53.178;5.846;2023-02-15T07:16:14;-0.70;99.90
54680;DHT22;40578;53.178;5.846;2023-02-15T07:18:40;-0.60;99.90
54680;DHT22;40578;53.178;5.846;2023-02-15T07:21:06;-0.60;99.90
54680;DHT22;40578;53.178;5.846;2023-02-15T07:23:39;-0.60;99.90
54680;DHT22;40578;53.178;5.846;2023-02-15T07:26:05;-0.60;99.90
54680;DHT22;40578;53.178;5.846;2023-02-15T07:28:32;-0.80;99.90
54680;DHT22;40578;53.178;5.846;2023-02-15T07:30:57;-0.50;99.90
54680;DHT22;40578;53.178;5.846;2023-02-15T07:33:23;-0.70;99.90
54680;DHT22;40578;53.178;5.846;2023-02-15T07:35:54;-0.50;99.90
54680;DHT22;40578;53.178;5.846;2023-02-15T07:38:22;-0.40;99.90
54680;DHT22;40578;53.178;5.846;2023-02-15T07:40:48;-0.60;99.90
54680;DHT22;40578;53.178;5.846;2023-02-15T07:43:14;-0.40;99.90
54680;DHT22;40578;53.178;5.846;2023-02-15T07:45:39;-0.40;99.90
54680;DHT22;40578;53.178;5.846;2023-02-15T07:48:05;-0.70;99.90
54680;DHT22;40578;53.178;5.846;2023-02-15T07:50:32;-0.30;99.90
54680;DHT22;40578;53.178;5.846;2023-02-15T07:52:57;-0.30;99.90
54680;DHT22;40578;53.178;5.846;2023-02-15T07:55:23;-0.60;99.90
54680;DHT22;40578;53.178;5.846;2023-02-15T07:57:50;-0.30;99.90
54680;DHT22;40578;53.178;5.846;2023-02-15T08:00:18;-0.20;99.90
54680;DHT22;40578;53.178;5.846;2023-02-15T08:02:49;-0.40;99.90
54680;DHT22;40578;53.178;5.846;2023-02-15T08:05:35;0.30;99.90
54680;DHT22;40578;53.178;5.846;2023-02-15T08:08:01;-0.20;99.90
54680;DHT22;40578;53.178;5.846;2023-02-15T08:10:26;-0.10;99.90
54680;DHT22;40578;53.178;5.846;2023-02-15T08:13:12;-0.30;99.90
54680;DHT22;40578;53.178;5.846;2023-02-15T08:15:38;-0.30;99.90
54680;DHT22;40578;53.178;5.846;2023-02-15T08:18:03;0.80;99.90
54680;DHT22;40578;53.178;5.846;2023-02-15T08:20:29;0.40;99.90
54680;DHT22;40578;53.178;5.846;2023-02-15T08:22:54;0.00;99.90
54680;DHT22;40578;53.178;5.846;2023-02-15T08:25:20;-0.10;99.90
54680;DHT22;40578;53.178;5.846;2023-02-15T08:27:46;0.30;99.90
54680;DHT22;40578;53.178;5.846;2023-02-15T08:30:12;0.30;99.90
54680;DHT22;40578;53.178;5.846;2023-02-15T08:32:39;0.20;99.90
54680;DHT22;40578;53.178;5.846;2023-02-15T08:35:05;0.60;99.90
54680;DHT22;40578;53.178;5.846;2023-02-15T08:37:31;0.30;99.90
54680;DHT22;40578;53.178;5.846;2023-02-15T08:39:56;0.40;99.90
54680;DHT22;40578;53.178;5.846;2023-02-15T08:42:22;0.60;99.90
54680;DHT22;40578;53.178;5.846;2023-02-15T08:44:47;0.90;99.90
54680;DHT22;40578;53.178;5.846;2023-02-15T08:47:15;1.00;99.90
54680;DHT22;40578;53.178;5.846;2023-02-15T08:49:41;0.80;99.90
54680;DHT22;40578;53.178;5.846;2023-02-15T08:52:07;1.60;99.90
54680;DHT22;40578;53.178;5.846;2023-02-15T08:54:33;1.60;99.90
54680;DHT22;40578;53.178;5.846;2023-02-15T08:56:58;1.20;99.90
54680;DHT22;40578;53.178;5.846;2023-02-15T08:59:25;1.20;99.90
54680;DHT22;40578;53.178;5.846;2023-02-15T09:01:53;1.30;99.90
54680;DHT22;40578;53.178;5.846;2023-02-15T09:04:19;1.20;99.90
54680;DHT22;40578;53.178;5.846;2023-02-15T09:06:47;1.10;99.90
54680;DHT22;40578;53.178;5.846;2023-02-15T09:09:13;1.60;99.90
54680;DHT22;40578;53.178;5.846;2023-02-15T09:11:41;1.60;99.90
54680;DHT22;40578;53.178;5.846;2023-02-15T09:14:11;1.10;99.90
54680;DHT22;40578;53.178;5.846;2023-02-15T09:16:40;1.80;99.90
54680;DHT22;40578;53.178;5.846;2023-02-15T09:19:06;1.80;99.90
54680;DHT22;40578;53.178;5.846;2023-02-15T09:21:35;2.00;99.90
54680;DHT22;40578;53.178;5.846;2023-02-15T09:24:07;2.10;99.90
54680;DHT22;40578;53.178;5.846;2023-02-15T09:26:35;2.10;99.90
54680;DHT22;40578;53.178;5.846;2023-02-15T09:29:01;2.30;99.90
54680;DHT22;40578;53.178;5.846;2023-02-15T09:31:31;2.40;99.90
54680;DHT22;40578;53.178;5.846;2023-02-15T09:33:58;2.50;99.90
54680;DHT22;40578;53.178;5.846;2023-02-15T09:36:31;2.40;99.90
54680;DHT22;40578;53.178;5.846;2023-02-15T09:47:31;3.00;99.90
54680;DHT22;40578;53.178;5.846;2023-02-15T09:59:00;3.50;99.90
54680;DHT22;40578;53.178;5.846;2023-02-15T10:15:29;3.90;99.90
54680;DHT22;40578;53.178;5.846;2023-02-15T10:26:20;4.50;99.90
54680;DHT22;40578;53.178;5.846;2023-02-15T10:29:05;4.50;99.90
54680;DHT22;40578;53.178;5.846;2023-02-15T10:31:49;4.40;99.90
54680;DHT22;40578;53.178;5.846;2023-02-15T10:34:37;4.40;99.90
54680;DHT22;40578;53.178;5.846;2023-02-15T10:40:25;4.80;99.90
54680;DHT22;40578;53.178;5.846;2023-02-15T10:45:35;4.70;99.90
54680;DHT22;40578;53.178;5.846;2023-02-15T10:48:09;4.80;99.90
54680;DHT22;40578;53.178;5.846;2023-02-15T10:53:34;5.00;99.90
54680;DHT22;40578;53.178;5.846;2023-02-15T11:06:48;5.60;99.90
54680;DHT22;40578;53.178;5.846;2023-02-15T11:09:18;5.70;99.90
54680;DHT22;40578;53.178;5.846;2023-02-15T11:11:49;5.70;99.90
54680;DHT22;40578;53.178;5.846;2023-02-15T11:16:50;5.90;99.90
54680;DHT22;40578;53.178;5.846;2023-02-15T11:19:28;5.90;99.90
54680;DHT22;40578;53.178;5.846;2023-02-15T11:22:02;6.10;99.90
54680;DHT22;40578;53.178;5.846;2023-02-15T11:24:31;6.70;99.90
54680;DHT22;40578;53.178;5.846;2023-02-15T11:27:02;6.20;99.90
54680;DHT22;40578;53.178;5.846;2023-02-15T11:29:35;7.60;99.90
54680;DHT22;40578;53.178;5.846;2023-02-15T11:35:00;6.50;99.90
54680;DHT22;40578;53.178;5.846;2023-02-15T11:38:17;6.60;99.90
54680;DHT22;40578;53.178;5.846;2023-02-15T11:40:30;6.70;99.90
54680;DHT22;40578;53.178;5.846;2023-02-15T11:43:02;6.80;99.90
54680;DHT22;40578;53.178;5.846;2023-02-15T11:45:31;7.10;99.90
54680;DHT22;40578;53.178;5.846;2023-02-15T11:47:58;7.30;99.90
54680;DHT22;40578;53.178;5.846;2023-02-15T11:50:27;8.10;99.90
54680;DHT22;40578;53.178;5.846;2023-02-15T11:52:58;7.50;99.90
54680;DHT22;40578;53.178;5.846;2023-02-15T11:55:25;7.60;99.90
54680;DHT22;40578;53.178;5.846;2023-02-15T11:58:04;7.60;99.90
54680;DHT22;40578;53.178;5.846;2023-02-15T12:00:39;7.60;99.90
54680;DHT22;40578;53.178;5.846;2023-02-15T12:03:21;7.70;99.90
54680;DHT22;40578;53.178;5.846;2023-02-15T12:05:52;7.70;99.90
54680;DHT22;40578;53.178;5.846;2023-02-15T12:08:22;7.80;99.90
54680;DHT22;40578;53.178;5.846;2023-02-15T12:13:24;7.90;99.90
54680;DHT22;40578;53.178;5.846;2023-02-15T12:15:53;8.00;99.90
54680;DHT22;40578;53.178;5.846;2023-02-15T12:18:40;8.00;99.90
54680;DHT22;40578;53.178;5.846;2023-02-15T12:21:09;8.10;99.90
54680;DHT22;40578;53.178;5.846;2023-02-15T12:23:46;8.10;99.90
54680;DHT22;40578;53.178;5.846;2023-02-15T12:26:13;8.20;99.90
54680;DHT22;40578;53.178;5.846;2023-02-15T12:28:44;8.20;99.90
54680;DHT22;40578;53.178;5.846;2023-02-15T12:31:36;8.20;99.90
54680;DHT22;40578;53.178;5.846;2023-02-15T12:34:09;8.30;99.90
54680;DHT22;40578;53.178;5.846;2023-02-15T12:36:44;8.30;99.90
54680;DHT22;40578;53.178;5.846;2023-02-15T12:41:37;8.60;99.90
54680;DHT22;40578;53.178;5.846;2023-02-15T12:46:57;8.60;99.90
54680;DHT22;40578;53.178;5.846;2023-02-15T12:49:23;8.60;99.90
54680;DHT22;40578;53.178;5.846;2023-02-15T12:52:13;8.90;99.90
54680;DHT22;40578;53.178;5.846;2023-02-15T12:54:51;8.60;99.90
54680;DHT22;40578;53.178;5.846;2023-02-15T12:57:31;8.50;99.90
54680;DHT22;40578;53.178;5.846;2023-02-15T13:00:11;8.50;99.90
54680;DHT22;40578;53.178;5.846;2023-02-15T13:02:54;8.50;99.90
54680;DHT22;40578;53.178;5.846;2023-02-15T13:07:51;8.40;99.90
54680;DHT22;40578;53.178;5.846;2023-02-15T13:10:22;8.30;99.90
54680;DHT22;40578;53.178;5.846;2023-02-15T13:12:50;8.30;99.90
54680;DHT22;40578;53.178;5.846;2023-02-15T13:15:40;9.50;99.90
54680;DHT22;40578;53.178;5.846;2023-02-15T13:18:16;8.20;99.90
54680;DHT22;40578;53.178;5.846;2023-02-15T13:20:42;8.30;99.90
54680;DHT22;40578;53.178;5.846;2023-02-15T13:23:30;8.30;99.90
54680;DHT22;40578;53.178;5.846;2023-02-15T13:25:59;8.30;99.90
54680;DHT22;40578;53.178;5.846;2023-02-15T13:28:38;8.50;99.90
54680;DHT22;40578;53.178;5.846;2023-02-15T13:31:13;8.40;99.90
54680;DHT22;40578;53.178;5.846;2023-02-15T13:33:42;8.40;99.90
54680;DHT22;40578;53.178;5.846;2023-02-15T13:39:02;8.50;99.90
54680;DHT22;40578;53.178;5.846;2023-02-15T13:41:50;8.50;99.90
54680;DHT22;40578;53.178;5.846;2023-02-15T13:44:25;8.50;99.90
54680;DHT22;40578;53.178;5.846;2023-02-15T13:53:02;8.50;99.90
54680;DHT22;40578;53.178;5.846;2023-02-15T13:55:40;8.40;99.90
54680;DHT22;40578;53.178;5.846;2023-02-15T13:58:37;8.40;99.90
54680;DHT22;40578;53.178;5.846;2023-02-15T14:10:21;8.40;99.90
54680;DHT22;40578;53.178;5.846;2023-02-15T14:15:31;8.40;99.90
54680;DHT22;40578;53.178;5.846;2023-02-15T14:18:07;8.50;99.90
54680;DHT22;40578;53.178;5.846;2023-02-15T14:27:27;8.60;99.90
54680;DHT22;40578;53.178;5.846;2023-02-15T14:30:03;8.60;99.90
54680;DHT22;40578;53.178;5.846;2023-02-15T14:32:42;8.70;99.90
54680;DHT22;40578;53.178;5.846;2023-02-15T14:35:15;8.70;99.90
54680;DHT22;40578;53.178;5.846;2023-02-15T14:48:56;8.80;99.90
54680;DHT22;40578;53.178;5.846;2023-02-15T15:04:42;8.60;99.90
54680;DHT22;40578;53.178;5.846;2023-02-15T15:07:21;8.60;99.90
54680;DHT22;40578;53.178;5.846;2023-02-15T15:13:34;8.60;99.90
54680;DHT22;40578;53.178;5.846;2023-02-15T15:15:34;8.60;99.90
54680;DHT22;40578;53.178;5.846;2023-02-15T15:18:10;8.60;99.90
54680;DHT22;40578;53.178;5.846;2023-02-15T15:20:56;8.50;99.90
54680;DHT22;40578;53.178;5.846;2023-02-15T15:41:42;8.10;99.90
54680;DHT22;40578;53.178;5.846;2023-02-15T15:47:43;8.00;99.90
54680;DHT22;40578;53.178;5.846;2023-02-15T15:50:15;7.90;99.90
54680;DHT22;40578;53.178;5.846;2023-02-15T15:52:52;7.80;99.90
54680;DHT22;40578;53.178;5.846;2023-02-15T15:55:23;7.70;99.90
54680;DHT22;40578;53.178;5.846;2023-02-15T15:57:56;7.70;99.90
54680;DHT22;40578;53.178;5.846;2023-02-15T16:03:24;7.60;99.90
54680;DHT22;40578;53.178;5.846;2023-02-15T16:05:50;7.60;99.90
54680;DHT22;40578;53.178;5.846;2023-02-15T16:10:55;7.40;99.90
54680;DHT22;40578;53.178;5.846;2023-02-15T16:13:22;7.40;99.90
54680;DHT22;40578;53.178;5.846;2023-02-15T16:15:52;7.30;99.90
54680;DHT22;40578;53.178;5.846;2023-02-15T16:18:21;7.20;99.90
54680;DHT22;40578;53.178;5.846;2023-02-15T16:20:57;7.20;99.90
54680;DHT22;40578;53.178;5.846;2023-02-15T16:28:33;7.00;99.90
54680;DHT22;40578;53.178;5.846;2023-02-15T16:31:13;6.90;99.90
54680;DHT22;40578;53.178;5.846;2023-02-15T16:33:41;7.10;99.90
54680;DHT22;40578;53.178;5.846;2023-02-15T16:36:19;6.80;99.90
54680;DHT22;40578;53.178;5.846;2023-02-15T16:41:15;6.70;99.90
54680;DHT22;40578;53.178;5.846;2023-02-15T16:43:44;6.60;99.90
54680;DHT22;40578;53.178;5.846;2023-02-15T16:46:25;6.50;99.90
54680;DHT22;40578;53.178;5.846;2023-02-15T16:48:54;6.50;99.90
54680;DHT22;40578;53.178;5.846;2023-02-15T16:51:27;6.50;99.90
54680;DHT22;40578;53.178;5.846;2023-02-15T16:53:57;6.50;99.90
54680;DHT22;40578;53.178;5.846;2023-02-15T16:56:27;6.40;99.90
54680;DHT22;40578;53.178;5.846;2023-02-15T16:58:56;6.40;99.90
54680;DHT22;40578;53.178;5.846;2023-02-15T17:01:26;6.60;99.90
54680;DHT22;40578;53.178;5.846;2023-02-15T17:06:37;6.20;99.90
54680;DHT22;40578;53.178;5.846;2023-02-15T17:09:05;6.10;99.90
54680;DHT22;40578;53.178;5.846;2023-02-15T17:11:42;5.80;99.90
54680;DHT22;40578;53.178;5.846;2023-02-15T17:16:53;6.00;99.90
54680;DHT22;40578;53.178;5.846;2023-02-15T17:19:23;5.90;99.90
54680;DHT22;40578;53.178;5.846;2023-02-15T17:22:04;6.00;99.90
54680;DHT22;40578;53.178;5.846;2023-02-15T17:24:40;6.00;99.90
54680;DHT22;40578;53.178;5.846;2023-02-15T17:27:15;5.90;99.90
54680;DHT22;40578;53.178;5.846;2023-02-15T17:29:48;5.90;99.90
54680;DHT22;40578;53.178;5.846;2023-02-15T17:32:20;5.80;99.90
54680;DHT22;40578;53.178;5.846;2023-02-15T17:34:58;5.80;99.90
54680;DHT22;40578;53.178;5.846;2023-02-15T17:37:41;5.70;99.90
54680;DHT22;40578;53.178;5.846;2023-02-15T17:40:22;5.60;99.90
54680;DHT22;40578;53.178;5.846;2023-02-15T17:42:49;5.70;99.90
54680;DHT22;40578;53.178;5.846;2023-02-15T17:45:15;5.60;99.90
54680;DHT22;40578;53.178;5.846;2023-02-15T17:47:41;5.60;99.90
54680;DHT22;40578;53.178;5.846;2023-02-15T17:50:07;5.50;99.90
54680;DHT22;40578;53.178;5.846;2023-02-15T17:52:34;5.50;99.90
54680;DHT22;40578;53.178;5.846;2023-02-15T17:55:12;5.50;99.90
54680;DHT22;40578;53.178;5.846;2023-02-15T17:57:56;5.50;99.90
54680;DHT22;40578;53.178;5.846;2023-02-15T18:00:21;5.40;99.90
54680;DHT22;40578;53.178;5.846;2023-02-15T18:03:09;5.40;99.90
54680;DHT22;40578;53.178;5.846;2023-02-15T18:05:54;5.40;99.90
54680;DHT22;40578;53.178;5.846;2023-02-15T18:08:39;7.10;99.90
54680;DHT22;40578;53.178;5.846;2023-02-15T18:11:23;5.30;99.90
54680;DHT22;40578;53.178;5.846;2023-02-15T18:14:01;5.30;99.90
54680;DHT22;40578;53.178;5.846;2023-02-15T18:16:33;5.30;99.90
54680;DHT22;40578;53.178;5.846;2023-02-15T18:19:00;5.30;99.90
54680;DHT22;40578;53.178;5.846;2023-02-15T18:21:26;5.20;99.90
54680;DHT22;40578;53.178;5.846;2023-02-15T18:23:52;5.40;99.90
54680;DHT22;40578;53.178;5.846;2023-02-15T18:26:21;5.20;99.90
54680;DHT22;40578;53.178;5.846;2023-02-15T18:28:47;5.20;99.90
54680;DHT22;40578;53.178;5.846;2023-02-15T18:31:13;5.20;99.90
54680;DHT22;40578;53.178;5.846;2023-02-15T18:33:49;5.20;99.90
54680;DHT22;40578;53.178;5.846;2023-02-15T18:36:38;5.10;99.90
54680;DHT22;40578;53.178;5.846;2023-02-15T18:39:19;6.00;99.90
54680;DHT22;40578;53.178;5.846;2023-02-15T18:41:47;5.10;99.90
54680;DHT22;40578;53.178;5.846;2023-02-15T18:44:13;5.10;99.90
54680;DHT22;40578;53.178;5.846;2023-02-15T18:46:38;5.10;99.90
54680;DHT22;40578;53.178;5.846;2023-02-15T18:49:04;5.10;99.90
54680;DHT22;40578;53.178;5.846;2023-02-15T18:51:30;5.10;99.90
54680;DHT22;40578;53.178;5.846;2023-02-15T18:53:57;5.10;99.90
54680;DHT22;40578;53.178;5.846;2023-02-15T18:56:23;5.20;99.90
54680;DHT22;40578;53.178;5.846;2023-02-15T18:58:50;5.20;99.90
54680;DHT22;40578;53.178;5.846;2023-02-15T19:01:18;5.10;99.90
54680;DHT22;40578;53.178;5.846;2023-02-15T19:03:48;5.20;99.90
54680;DHT22;40578;53.178;5.846;2023-02-15T19:06:17;5.20;99.90
54680;DHT22;40578;53.178;5.846;2023-02-15T19:08:44;5.20;99.90
54680;DHT22;40578;53.178;5.846;2023-02-15T19:11:22;5.50;99.90
54680;DHT22;40578;53.178;5.846;2023-02-15T19:13:50;5.20;99.90
54680;DHT22;40578;53.178;5.846;2023-02-15T19:16:29;5.10;99.90
54680;DHT22;40578;53.178;5.846;2023-02-15T19:18:55;5.10;99.90